sensor_id;sensor_type;location;lat;lon;timestamp;P1;durP1;ratioP1;P2;durP2;ratioP2
27428;SDS011;14881;48.092;11.574;2024-03-23T00:53:13;4.20;;;3.58;;
27428;SDS011;14881;48.092;11.574;2024-03-23T00:55:40;5.43;;;3.55;;
27428;SDS011;14881;48.092;11.574;2024-03-23T00:58:07;5.00;;;3.97;;
27428;SDS011;14881;48.092;11.574;2024-03-23T01:00:33;7.07;;;3.88;;
27428;SDS011;14881;48.092;11.574;2024-03-23T01:03:00;5.90;;;3.58;;
27428;SDS011;14881;48.092;11.574;2024-03-23T01:05:25;5.45;;;4.15;;
27428;SDS011;14881;48.092;11.574;2024-03-23T01:07:52;6.38;;;3.88;;
27428;SDS011;14881;48.092;11.574;2024-03-23T01:10:19;5.13;;;3.60;;
27428;SDS011;14881;48.092;11.574;2024-03-23T01:12:46;5.15;;;3.40;;
27428;SDS011;14881;48.092;11.574;2024-03-23T01:15:12;4.93;;;4.20;;
27428;SDS011;14881;48.092;11.574;2024-03-23T01:17:39;6.07;;;4.00;;
27428;SDS011;14881;48.092;11.574;2024-03-23T01:20:05;8.55;;;4.40;;
27428;SDS011;14881;48.092;11.574;2024-03-23T01:22:32;4.90;;;4.40;;
27428;SDS011;14881;48.092;11.574;2024-03-23T01:24:58;7.32;;;3.75;;
27428;SDS011;14881;48.092;11.574;2024-03-23T01:27:26;5.53;;;4.78;;
27428;SDS011;14881;48.092;11.574;2024-03-23T01:29:52;9.35;;;4.82;;
27428;SDS011;14881;48.092;11.574;2024-03-23T01:32:19;5.95;;;4.43;;
27428;SDS011;14881;48.092;11.574;2024-03-23T01:34:45;9.00;;;4.30;;
27428;SDS011;14881;48.092;11.574;2024-03-23T01:37:12;6.38;;;4.05;;
27428;SDS011;14881;48.092;11.574;2024-03-23T01:39:38;5.65;;;4.57;;
27428;SDS011;14881;48.092;11.574;2024-03-23T01:42:04;7.68;;;4.35;;
27428;SDS011;14881;48.092;11.574;2024-03-23T01:44:32;5.00;;;4.50;;
27428;SDS011;14881;48.092;11.574;2024-03-23T01:46:59;5.38;;;3.95;;
27428;SDS011;14881;48.092;11.574;2024-03-23T01:49:24;5.75;;;4.47;;
27428;SDS011;14881;48.092;11.574;2024-03-23T01:51:52;6.18;;;3.92;;
27428;SDS011;14881;48.092;11.574;2024-03-23T01:54:18;4.15;;;3.75;;
27428;SDS011;14881;48.092;11.574;2024-03-23T01:56:45;4.07;;;3.33;;
27428;SDS011;14881;48.092;11.574;2024-03-23T01:59:11;5.70;;;3.10;;
27428;SDS011;14881;48.092;11.574;2024-03-23T02:01:40;5.45;;;3.60;;
27428;SDS011;14881;48.092;11.574;2024-03-23T02:04:06;6.57;;;3.50;;
27428;SDS011;14881;48.092;11.574;2024-03-23T02:06:35;5.18;;;3.10;;
27428;SDS011;14881;48.092;11.574;2024-03-23T02:09:01;6.40;;;3.22;;
27428;SDS011;14881;48.092;11.574;2024-03-23T02:11:29;4.57;;;2.90;;
27428;SDS011;14881;48.092;11.574;2024-03-23T02:13:55;5.07;;;3.05;;
27428;SDS011;14881;48.092;11.574;2024-03-23T02:16:22;7.25;;;3.45;;
27428;SDS011;14881;48.092;11.574;2024-03-23T02:18:49;4.70;;;3.20;;
27428;SDS011;14881;48.092;11.574;2024-03-23T02:21:16;6.63;;;3.08;;
27428;SDS011;14881;48.092;11.574;2024-03-23T02:23:43;4.68;;;3.20;;
27428;SDS011;14881;48.092;11.574;2024-03-23T02:26:10;4.13;;;3.50;;
27428;SDS011;14881;48.092;11.574;2024-03-23T02:28:36;4.63;;;3.00;;
27428;SDS011;14881;48.092;11.574;2024-03-23T02:31:03;4.88;;;3.45;;
27428;SDS011;14881;48.092;11.574;2024-03-23T02:33:29;4.90;;;3.10;;
27428;SDS011;14881;48.092;11.574;2024-03-23T02:35:57;3.60;;;2.92;;
27428;SDS011;14881;48.092;11.574;2024-03-23T02:38:24;7.38;;;3.00;;
27428;SDS011;14881;48.092;11.574;2024-03-23T02:40:51;6.93;;;3.60;;
27428;SDS011;14881;48.092;11.574;2024-03-23T02:43:18;3.75;;;3.13;;
27428;SDS011;14881;48.092;11.574;2024-03-23T02:45:44;4.82;;;3.55;;
27428;SDS011;14881;48.092;11.574;2024-03-23T02:48:10;5.18;;;3.20;;
27428;SDS011;14881;48.092;11.574;2024-03-23T02:50:36;6.57;;;3.35;;
27428;SDS011;14881;48.092;11.574;2024-03-23T02:53:03;5.28;;;3.28;;
27428;SDS011;14881;48.092;11.574;2024-03-23T02:55:29;7.13;;;3.50;;
27428;SDS011;14881;48.092;11.574;2024-03-23T02:57:57;3.25;;;2.95;;
27428;SDS011;14881;48.092;11.574;2024-03-23T03:00:27;4.55;;;3.22;;
27428;SDS011;14881;48.092;11.574;2024-03-23T03:02:54;3.80;;;3.20;;
27428;SDS011;14881;48.092;11.574;2024-03-23T03:05:20;5.72;;;3.55;;
27428;SDS011;14881;48.092;11.574;2024-03-23T03:07:48;11.65;;;3.67;;
27428;SDS011;14881;48.092;11.574;2024-03-23T03:10:14;3.88;;;3.08;;
27428;SDS011;14881;48.092;11.574;2024-03-23T03:12:41;5.35;;;3.08;;
27428;SDS011;14881;48.092;11.574;2024-03-23T03:15:09;4.82;;;3.72;;
27428;SDS011;14881;48.092;11.574;2024-03-23T03:17:35;5.97;;;3.53;;
27428;SDS011;14881;48.092;11.574;2024-03-23T03:20:01;5.13;;;3.70;;
27428;SDS011;14881;48.092;11.574;2024-03-23T03:22:30;5.13;;;3.10;;
27428;SDS011;14881;48.092;11.574;2024-03-23T03:24:55;3.97;;;3.58;;
27428;SDS011;14881;48.092;11.574;2024-03-23T03:27:22;4.43;;;3.58;;
27428;SDS011;14881;48.092;11.574;2024-03-23T03:29:48;5.85;;;3.60;;
27428;SDS011;14881;48.092;11.574;2024-03-23T03:32:16;5.78;;;3.42;;
27428;SDS011;14881;48.092;11.574;2024-03-23T03:34:42;4.68;;;3.33;;
27428;SDS011;14881;48.092;11.574;2024-03-23T03:37:09;4.47;;;3.15;;
27428;SDS011;14881;48.092;11.574;2024-03-23T03:39:35;6.05;;;3.60;;
27428;SDS011;14881;48.092;11.574;2024-03-23T03:42:02;4.15;;;3.35;;
27428;SDS011;14881;48.092;11.574;2024-03-23T03:44:31;4.82;;;3.28;;
27428;SDS011;14881;48.092;11.574;2024-03-23T03:46:58;4.32;;;3.15;;
27428;SDS011;14881;48.092;11.574;2024-03-23T03:49:25;5.57;;;3.97;;
27428;SDS011;14881;48.092;11.574;2024-03-23T03:51:52;4.38;;;3.67;;
27428;SDS011;14881;48.092;11.574;2024-03-23T03:54:18;4.38;;;3.53;;
27428;SDS011;14881;48.092;11.574;2024-03-23T03:56:45;5.20;;;3.30;;
27428;SDS011;14881;48.092;11.574;2024-03-23T03:59:11;6.05;;;3.95;;
27428;SDS011;14881;48.092;11.574;2024-03-23T04:01:37;4.93;;;3.58;;
27428;SDS011;14881;48.092;11.574;2024-03-23T04:04:03;4.90;;;3.60;;
27428;SDS011;14881;48.092;11.574;2024-03-23T04:06:32;5.63;;;3.80;;
27428;SDS011;14881;48.092;11.574;2024-03-23T04:08:58;4.10;;;3.10;;
27428;SDS011;14881;48.092;11.574;2024-03-23T04:11:25;4.00;;;3.45;;
27428;SDS011;14881;48.092;11.574;2024-03-23T04:13:51;4.03;;;3.63;;
27428;SDS011;14881;48.092;11.574;2024-03-23T04:16:24;5.30;;;3.13;;
27428;SDS011;14881;48.092;11.574;2024-03-23T04:18:51;3.65;;;3.15;;
27428;SDS011;14881;48.092;11.574;2024-03-23T04:21:18;4.65;;;2.70;;
27428;SDS011;14881;48.092;11.574;2024-03-23T04:23:45;4.30;;;3.10;;
27428;SDS011;14881;48.092;11.574;2024-03-23T04:26:12;6.38;;;3.58;;
27428;SDS011;14881;48.092;11.574;2024-03-23T04:28:38;6.40;;;3.25;;
27428;SDS011;14881;48.092;11.574;2024-03-23T04:31:05;5.65;;;3.40;;
27428;SDS011;14881;48.092;11.574;2024-03-23T04:33:30;5.20;;;3.33;;
27428;SDS011;14881;48.092;11.574;2024-03-23T04:35:57;3.97;;;3.30;;
27428;SDS011;14881;48.092;11.574;2024-03-23T04:38:23;5.13;;;3.45;;
27428;SDS011;14881;48.092;11.574;2024-03-23T04:40:55;6.03;;;2.72;;
27428;SDS011;14881;48.092;11.574;2024-03-23T04:43:22;5.03;;;2.92;;
27428;SDS011;14881;48.092;11.574;2024-03-23T04:45:49;3.53;;;3.10;;
27428;SDS011;14881;48.092;11.574;2024-03-23T04:48:15;4.38;;;2.78;;
27428;SDS011;14881;48.092;11.574;2024-03-23T04:50:42;5.30;;;3.15;;
27428;SDS011;14881;48.092;11.574;2024-03-23T04:53:08;3.13;;;2.83;;
27428;SDS011;14881;48.092;11.574;2024-03-23T04:55:35;3.58;;;2.90;;
27428;SDS011;14881;48.092;11.574;2024-03-23T04:58:04;4.53;;;2.70;;
27428;SDS011;14881;48.092;11.574;2024-03-23T05:00:30;4.13;;;3.10;;
27428;SDS011;14881;48.092;11.574;2024-03-23T05:02:56;4.90;;;3.47;;
27428;SDS011;14881;48.092;11.574;2024-03-23T05:05:22;3.45;;;2.92;;
27428;SDS011;14881;48.092;11.574;2024-03-23T05:07:49;4.30;;;2.80;;
27428;SDS011;14881;48.092;11.574;2024-03-23T05:10:15;3.92;;;2.78;;
27428;SDS011;14881;48.092;11.574;2024-03-23T05:12:42;3.72;;;2.95;;
27428;SDS011;14881;48.092;11.574;2024-03-23T05:15:11;3.42;;;2.90;;
27428;SDS011;14881;48.092;11.574;2024-03-23T05:17:40;4.03;;;2.67;;
27428;SDS011;14881;48.092;11.574;2024-03-23T05:20:06;3.78;;;3.00;;
27428;SDS011;14881;48.092;11.574;2024-03-23T05:22:35;4.50;;;2.97;;
27428;SDS011;14881;48.092;11.574;2024-03-23T05:25:01;3.08;;;2.78;;
27428;SDS011;14881;48.092;11.574;2024-03-23T05:27:30;3.00;;;2.70;;
27428;SDS011;14881;48.092;11.574;2024-03-23T05:29:56;12.25;;;3.65;;
27428;SDS011;14881;48.092;11.574;2024-03-23T05:32:24;5.00;;;3.28;;
27428;SDS011;14881;48.092;11.574;2024-03-23T05:34:51;5.95;;;2.85;;
27428;SDS011;14881;48.092;11.574;2024-03-23T05:37:21;4.05;;;2.90;;
27428;SDS011;14881;48.092;11.574;2024-03-23T05:39:47;3.30;;;2.60;;
27428;SDS011;14881;48.092;11.574;2024-03-23T05:42:15;5.95;;;2.53;;
27428;SDS011;14881;48.092;11.574;2024-03-23T05:44:42;3.15;;;2.85;;
27428;SDS011;14881;48.092;11.574;2024-03-23T05:47:09;3.17;;;2.92;;
27428;SDS011;14881;48.092;11.574;2024-03-23T05:49:37;4.68;;;2.97;;
27428;SDS011;14881;48.092;11.574;2024-03-23T05:52:04;4.97;;;2.58;;
27428;SDS011;14881;48.092;11.574;2024-03-23T05:54:30;4.00;;;2.30;;
27428;SDS011;14881;48.092;11.574;2024-03-23T05:56:56;3.13;;;2.05;;
27428;SDS011;14881;48.092;11.574;2024-03-23T05:59:22;2.55;;;2.35;;
27428;SDS011;14881;48.092;11.574;2024-03-23T06:01:49;3.33;;;2.67;;
27428;SDS011;14881;48.092;11.574;2024-03-23T06:04:15;2.97;;;2.67;;
27428;SDS011;14881;48.092;11.574;2024-03-23T06:06:43;3.30;;;2.45;;
27428;SDS011;14881;48.092;11.574;2024-03-23T06:09:09;2.83;;;2.53;;
27428;SDS011;14881;48.092;11.574;2024-03-23T06:11:36;2.67;;;2.20;;
27428;SDS011;14881;48.092;11.574;2024-03-23T06:14:02;3.35;;;2.25;;
27428;SDS011;14881;48.092;11.574;2024-03-23T06:16:29;6.70;;;2.38;;
27428;SDS011;14881;48.092;11.574;2024-03-23T06:18:56;3.42;;;2.28;;
27428;SDS011;14881;48.092;11.574;2024-03-23T06:21:24;4.63;;;2.63;;
27428;SDS011;14881;48.092;11.574;2024-03-23T06:23:52;3.08;;;2.15;;
27428;SDS011;14881;48.092;11.574;2024-03-23T06:26:19;4.45;;;2.25;;
27428;SDS011;14881;48.092;11.574;2024-03-23T06:28:47;5.85;;;2.35;;
27428;SDS011;14881;48.092;11.574;2024-03-23T06:31:14;3.10;;;2.60;;
27428;SDS011;14881;48.092;11.574;2024-03-23T06:33:40;3.05;;;1.95;;
27428;SDS011;14881;48.092;11.574;2024-03-23T06:36:08;4.00;;;2.17;;
27428;SDS011;14881;48.092;11.574;2024-03-23T06:38:35;1.85;;;1.70;;
27428;SDS011;14881;48.092;11.574;2024-03-23T06:41:04;2.55;;;1.90;;
27428;SDS011;14881;48.092;11.574;2024-03-23T06:43:31;5.13;;;2.30;;
27428;SDS011;14881;48.092;11.574;2024-03-23T06:45:57;4.38;;;2.35;;
27428;SDS011;14881;48.092;11.574;2024-03-23T06:48:23;2.70;;;2.22;;
27428;SDS011;14881;48.092;11.574;2024-03-23T06:50:55;3.13;;;2.08;;
27428;SDS011;14881;48.092;11.574;2024-03-23T06:53:21;2.80;;;2.10;;
27428;SDS011;14881;48.092;11.574;2024-03-23T06:55:50;4.88;;;2.17;;
27428;SDS011;14881;48.092;11.574;2024-03-23T06:58:18;2.47;;;1.80;;
27428;SDS011;14881;48.092;11.574;2024-03-23T07:00:45;2.85;;;1.88;;
27428;SDS011;14881;48.092;11.574;2024-03-23T07:03:14;2.38;;;2.10;;
27428;SDS011;14881;48.092;11.574;2024-03-23T07:05:52;5.20;;;3.30;;
27428;SDS011;14881;48.092;11.574;2024-03-23T07:08:30;2.85;;;1.88;;
27428;SDS011;14881;48.092;11.574;2024-03-23T07:10:57;2.40;;;2.20;;
27428;SDS011;14881;48.092;11.574;2024-03-23T07:13:24;9.02;;;2.20;;
27428;SDS011;14881;48.092;11.574;2024-03-23T07:15:51;3.42;;;1.80;;
27428;SDS011;14881;48.092;11.574;2024-03-23T07:18:17;3.53;;;2.00;;
27428;SDS011;14881;48.092;11.574;2024-03-23T07:20:51;2.45;;;1.92;;
27428;SDS011;14881;48.092;11.574;2024-03-23T07:23:17;2.95;;;2.22;;
27428;SDS011;14881;48.092;11.574;2024-03-23T07:25:44;2.53;;;2.15;;
27428;SDS011;14881;48.092;11.574;2024-03-23T07:28:10;2.70;;;2.00;;
27428;SDS011;14881;48.092;11.574;2024-03-23T07:30:38;3.55;;;2.20;;
27428;SDS011;14881;48.092;11.574;2024-03-23T07:33:04;6.70;;;1.92;;
27428;SDS011;14881;48.092;11.574;2024-03-23T07:35:31;2.85;;;2.20;;
27428;SDS011;14881;48.092;11.574;2024-03-23T07:37:57;3.25;;;2.05;;
27428;SDS011;14881;48.092;11.574;2024-03-23T07:40:30;7.18;;;2.30;;
27428;SDS011;14881;48.092;11.574;2024-03-23T07:42:56;3.72;;;2.40;;
27428;SDS011;14881;48.092;11.574;2024-03-23T07:45:23;5.30;;;2.60;;
27428;SDS011;14881;48.092;11.574;2024-03-23T07:47:50;2.92;;;2.40;;
27428;SDS011;14881;48.092;11.574;2024-03-23T07:50:17;2.75;;;2.30;;
27428;SDS011;14881;48.092;11.574;2024-03-23T07:52:43;3.15;;;2.70;;
27428;SDS011;14881;48.092;11.574;2024-03-23T07:55:10;4.20;;;2.50;;
27428;SDS011;14881;48.092;11.574;2024-03-23T07:57:36;3.70;;;3.10;;
27428;SDS011;14881;48.092;11.574;2024-03-23T08:00:03;2.80;;;2.42;;
27428;SDS011;14881;48.092;11.574;2024-03-23T08:02:29;3.83;;;2.50;;
27428;SDS011;14881;48.092;11.574;2024-03-23T08:04:57;4.88;;;2.38;;
27428;SDS011;14881;48.092;11.574;2024-03-23T08:07:23;5.10;;;2.83;;
27428;SDS011;14881;48.092;11.574;2024-03-23T08:09:50;3.50;;;2.38;;
27428;SDS011;14881;48.092;11.574;2024-03-23T08:12:16;2.80;;;2.50;;
27428;SDS011;14881;48.092;11.574;2024-03-23T08:14:43;2.80;;;2.25;;
27428;SDS011;14881;48.092;11.574;2024-03-23T08:17:09;6.32;;;3.05;;
27428;SDS011;14881;48.092;11.574;2024-03-23T08:19:36;3.67;;;3.38;;
27428;SDS011;14881;48.092;11.574;2024-03-23T08:22:03;5.35;;;3.40;;
27428;SDS011;14881;48.092;11.574;2024-03-23T08:24:30;5.18;;;3.63;;
27428;SDS011;14881;48.092;11.574;2024-03-23T08:26:55;6.63;;;3.25;;
27428;SDS011;14881;48.092;11.574;2024-03-23T08:29:22;4.35;;;3.63;;
27428;SDS011;14881;48.092;11.574;2024-03-23T08:31:48;6.18;;;3.90;;
27428;SDS011;14881;48.092;11.574;2024-03-23T08:34:15;6.65;;;4.35;;
27428;SDS011;14881;48.092;11.574;2024-03-23T08:36:41;7.63;;;4.68;;
27428;SDS011;14881;48.092;11.574;2024-03-23T08:39:09;7.07;;;4.70;;
27428;SDS011;14881;48.092;11.574;2024-03-23T08:41:35;7.38;;;4.47;;
27428;SDS011;14881;48.092;11.574;2024-03-23T08:44:01;4.22;;;3.65;;
27428;SDS011;14881;48.092;11.574;2024-03-23T08:46:27;5.63;;;3.65;;
27428;SDS011;14881;48.092;11.574;2024-03-23T08:48:54;6.00;;;4.30;;
27428;SDS011;14881;48.092;11.574;2024-03-23T08:51:20;6.07;;;5.07;;
27428;SDS011;14881;48.092;11.574;2024-03-23T08:53:47;8.90;;;6.03;;
27428;SDS011;14881;48.092;11.574;2024-03-23T08:56:14;8.95;;;5.20;;
27428;SDS011;14881;48.092;11.574;2024-03-23T08:58:41;6.82;;;5.72;;
27428;SDS011;14881;48.092;11.574;2024-03-23T09:01:07;7.38;;;5.78;;
27428;SDS011;14881;48.092;11.574;2024-03-23T09:03:34;11.32;;;7.10;;
27428;SDS011;14881;48.092;11.574;2024-03-23T09:06:02;8.80;;;6.65;;
27428;SDS011;14881;48.092;11.574;2024-03-23T09:08:28;9.18;;;6.13;;
27428;SDS011;14881;48.092;11.574;2024-03-23T09:10:55;8.13;;;6.85;;
27428;SDS011;14881;48.092;11.574;2024-03-23T09:13:22;8.55;;;6.75;;
27428;SDS011;14881;48.092;11.574;2024-03-23T09:15:49;11.88;;;7.13;;
27428;SDS011;14881;48.092;11.574;2024-03-23T09:18:16;10.95;;;7.45;;
27428;SDS011;14881;48.092;11.574;2024-03-23T09:20:43;10.30;;;7.47;;
27428;SDS011;14881;48.092;11.574;2024-03-23T09:23:09;11.27;;;6.78;;
27428;SDS011;14881;48.092;11.574;2024-03-23T09:25:36;9.98;;;7.10;;
27428;SDS011;14881;48.092;11.574;2024-03-23T09:28:03;9.23;;;6.95;;
27428;SDS011;14881;48.092;11.574;2024-03-23T09:30:32;9.80;;;7.68;;
27428;SDS011;14881;48.092;11.574;2024-03-23T09:32:58;9.52;;;6.82;;
27428;SDS011;14881;48.092;11.574;2024-03-23T09:35:24;7.15;;;6.30;;
27428;SDS011;14881;48.092;11.574;2024-03-23T09:37:50;7.85;;;6.07;;
27428;SDS011;14881;48.092;11.574;2024-03-23T09:40:17;7.10;;;4.93;;
27428;SDS011;14881;48.092;11.574;2024-03-23T09:42:43;6.43;;;4.68;;
27428;SDS011;14881;48.092;11.574;2024-03-23T09:45:17;5.97;;;4.88;;
27428;SDS011;14881;48.092;11.574;2024-03-23T09:47:48;8.43;;;5.88;;
27428;SDS011;14881;48.092;11.574;2024-03-23T09:50:15;6.70;;;5.00;;
27428;SDS011;14881;48.092;11.574;2024-03-23T09:52:41;6.03;;;3.17;;
27428;SDS011;14881;48.092;11.574;2024-03-23T09:55:08;3.72;;;2.70;;
27428;SDS011;14881;48.092;11.574;2024-03-23T09:57:35;4.90;;;3.17;;
27428;SDS011;14881;48.092;11.574;2024-03-23T10:00:02;4.05;;;2.92;;
27428;SDS011;14881;48.092;11.574;2024-03-23T10:02:28;2.85;;;2.55;;
27428;SDS011;14881;48.092;11.574;2024-03-23T10:04:56;2.67;;;2.30;;
27428;SDS011;14881;48.092;11.574;2024-03-23T10:07:23;2.95;;;2.40;;
27428;SDS011;14881;48.092;11.574;2024-03-23T10:09:50;3.10;;;2.42;;
27428;SDS011;14881;48.092;11.574;2024-03-23T10:12:17;2.83;;;2.33;;
27428;SDS011;14881;48.092;11.574;2024-03-23T10:14:45;2.67;;;2.40;;
27428;SDS011;14881;48.092;11.574;2024-03-23T10:17:12;4.68;;;2.00;;
27428;SDS011;14881;48.092;11.574;2024-03-23T10:19:40;1.83;;;1.63;;
27428;SDS011;14881;48.092;11.574;2024-03-23T10:22:09;2.50;;;2.05;;
27428;SDS011;14881;48.092;11.574;2024-03-23T10:24:36;1.58;;;1.48;;
27428;SDS011;14881;48.092;11.574;2024-03-23T10:27:02;4.15;;;2.03;;
27428;SDS011;14881;48.092;11.574;2024-03-23T10:29:29;2.75;;;2.15;;
27428;SDS011;14881;48.092;11.574;2024-03-23T10:32:00;2.05;;;1.63;;
27428;SDS011;14881;48.092;11.574;2024-03-23T10:34:34;3.17;;;2.25;;
27428;SDS011;14881;48.092;11.574;2024-03-23T10:37:01;2.33;;;1.98;;
27428;SDS011;14881;48.092;11.574;2024-03-23T10:39:32;1.88;;;1.77;;
27428;SDS011;14881;48.092;11.574;2024-03-23T10:42:00;2.03;;;1.83;;
27428;SDS011;14881;48.092;11.574;2024-03-23T10:44:28;2.20;;;2.00;;
27428;SDS011;14881;48.092;11.574;2024-03-23T10:46:56;2.47;;;1.70;;
27428;SDS011;14881;48.092;11.574;2024-03-23T10:49:25;2.33;;;2.05;;
27428;SDS011;14881;48.092;11.574;2024-03-23T10:51:53;5.05;;;2.10;;
27428;SDS011;14881;48.092;11.574;2024-03-23T10:54:20;4.05;;;2.00;;
27428;SDS011;14881;48.092;11.574;2024-03-23T10:56:49;2.05;;;1.77;;
27428;SDS011;14881;48.092;11.574;2024-03-23T10:59:20;5.70;;;2.13;;
27428;SDS011;14881;48.092;11.574;2024-03-23T11:01:56;2.20;;;1.77;;
27428;SDS011;14881;48.092;11.574;2024-03-23T11:04:30;8.35;;;2.42;;
27428;SDS011;14881;48.092;11.574;2024-03-23T11:06:56;2.08;;;1.83;;
27428;SDS011;14881;48.092;11.574;2024-03-23T11:09:40;2.92;;;2.03;;
27428;SDS011;14881;48.092;11.574;2024-03-23T11:12:26;5.20;;;1.50;;
27428;SDS011;14881;48.092;11.574;2024-03-23T11:14:57;2.38;;;1.55;;
27428;SDS011;14881;48.092;11.574;2024-03-23T11:17:26;1.85;;;1.60;;
27428;SDS011;14881;48.092;11.574;2024-03-23T11:19:54;1.67;;;1.58;;
27428;SDS011;14881;48.092;11.574;2024-03-23T11:25:15;2.58;;;2.13;;
27428;SDS011;14881;48.092;11.574;2024-03-23T11:27:44;2.15;;;1.70;;
27428;SDS011;14881;48.092;11.574;2024-03-23T11:30:12;2.53;;;2.05;;
27428;SDS011;14881;48.092;11.574;2024-03-23T11:32:39;3.05;;;1.90;;
27428;SDS011;14881;48.092;11.574;2024-03-23T11:35:06;2.20;;;2.00;;
27428;SDS011;14881;48.092;11.574;2024-03-23T11:37:34;2.10;;;1.80;;
27428;SDS011;14881;48.092;11.574;2024-03-23T11:40:05;2.72;;;1.88;;
27428;SDS011;14881;48.092;11.574;2024-03-23T11:42:43;2.53;;;1.52;;
27428;SDS011;14881;48.092;11.574;2024-03-23T11:45:11;6.10;;;2.17;;
27428;SDS011;14881;48.092;11.574;2024-03-23T11:47:37;3.63;;;1.67;;
27428;SDS011;14881;48.092;11.574;2024-03-23T11:50:04;2.17;;;1.73;;
27428;SDS011;14881;48.092;11.574;2024-03-23T11:52:30;2.90;;;2.00;;
27428;SDS011;14881;48.092;11.574;2024-03-23T11:55:04;2.45;;;1.73;;
27428;SDS011;14881;48.092;11.574;2024-03-23T11:57:33;4.38;;;2.10;;
27428;SDS011;14881;48.092;11.574;2024-03-23T12:00:01;3.22;;;1.80;;
27428;SDS011;14881;48.092;11.574;2024-03-23T12:02:27;2.63;;;2.00;;
27428;SDS011;14881;48.092;11.574;2024-03-23T12:04:54;4.45;;;2.05;;
27428;SDS011;14881;48.092;11.574;2024-03-23T12:07:20;3.33;;;2.22;;
27428;SDS011;14881;48.092;11.574;2024-03-23T12:09:47;4.90;;;2.30;;
27428;SDS011;14881;48.092;11.574;2024-03-23T12:12:27;2.90;;;2.25;;
27428;SDS011;14881;48.092;11.574;2024-03-23T12:15:02;5.22;;;2.80;;
27428;SDS011;14881;48.092;11.574;2024-03-23T12:17:30;4.38;;;2.97;;
27428;SDS011;14881;48.092;11.574;2024-03-23T12:19:57;5.55;;;3.00;;
27428;SDS011;14881;48.092;11.574;2024-03-23T12:22:23;6.53;;;3.05;;
27428;SDS011;14881;48.092;11.574;2024-03-23T12:24:50;4.32;;;2.88;;
27428;SDS011;14881;48.092;11.574;2024-03-23T12:27:17;5.03;;;2.90;;
27428;SDS011;14881;48.092;11.574;2024-03-23T12:29:43;4.68;;;3.20;;
27428;SDS011;14881;48.092;11.574;2024-03-23T12:32:13;4.95;;;3.67;;
27428;SDS011;14881;48.092;11.574;2024-03-23T12:34:41;5.57;;;3.40;;
27428;SDS011;14881;48.092;11.574;2024-03-23T12:37:07;6.90;;;3.45;;
27428;SDS011;14881;48.092;11.574;2024-03-23T12:39:34;4.63;;;3.10;;
27428;SDS011;14881;48.092;11.574;2024-03-23T12:42:00;7.57;;;3.53;;
27428;SDS011;14881;48.092;11.574;2024-03-23T12:44:28;7.22;;;3.40;;
27428;SDS011;14881;48.092;11.574;2024-03-23T12:46:53;4.00;;;3.20;;
27428;SDS011;14881;48.092;11.574;2024-03-23T12:49:22;6.15;;;3.47;;
27428;SDS011;14881;48.092;11.574;2024-03-23T12:51:52;5.28;;;3.75;;
27428;SDS011;14881;48.092;11.574;2024-03-23T12:54:21;8.32;;;3.80;;
27428;SDS011;14881;48.092;11.574;2024-03-23T12:56:46;5.82;;;3.85;;
27428;SDS011;14881;48.092;11.574;2024-03-23T12:59:13;9.48;;;4.05;;
27428;SDS011;14881;48.092;11.574;2024-03-23T13:01:40;6.45;;;4.10;;
27428;SDS011;14881;48.092;11.574;2024-03-23T13:04:06;4.43;;;3.72;;
27428;SDS011;14881;48.092;11.574;2024-03-23T13:06:34;7.70;;;3.33;;
27428;SDS011;14881;48.092;11.574;2024-03-23T13:09:01;7.15;;;3.50;;
27428;SDS011;14881;48.092;11.574;2024-03-23T13:11:28;6.00;;;3.70;;
27428;SDS011;14881;48.092;11.574;2024-03-23T13:13:55;7.07;;;3.60;;
27428;SDS011;14881;48.092;11.574;2024-03-23T13:16:21;6.88;;;3.58;;
27428;SDS011;14881;48.092;11.574;2024-03-23T13:18:48;7.10;;;3.50;;
27428;SDS011;14881;48.092;11.574;2024-03-23T13:21:17;7.25;;;3.75;;
27428;SDS011;14881;48.092;11.574;2024-03-23T13:23:47;7.50;;;3.35;;
27428;SDS011;14881;48.092;11.574;2024-03-23T13:26:13;7.15;;;3.20;;
27428;SDS011;14881;48.092;11.574;2024-03-23T13:28:40;9.35;;;3.58;;
27428;SDS011;14881;48.092;11.574;2024-03-23T13:31:06;7.20;;;3.80;;
27428;SDS011;14881;48.092;11.574;2024-03-23T13:33:34;6.05;;;2.95;;
27428;SDS011;14881;48.092;11.574;2024-03-23T13:36:00;6.55;;;3.00;;
27428;SDS011;14881;48.092;11.574;2024-03-23T13:38:28;6.18;;;3.13;;
27428;SDS011;14881;48.092;11.574;2024-03-23T13:40:56;5.93;;;3.22;;
27428;SDS011;14881;48.092;11.574;2024-03-23T13:43:24;7.72;;;3.58;;
27428;SDS011;14881;48.092;11.574;2024-03-23T13:45:52;4.95;;;2.75;;
27428;SDS011;14881;48.092;11.574;2024-03-23T13:48:21;3.92;;;2.72;;
27428;SDS011;14881;48.092;11.574;2024-03-23T13:50:58;5.82;;;3.15;;
27428;SDS011;14881;48.092;11.574;2024-03-23T13:53:25;6.80;;;3.33;;
27428;SDS011;14881;48.092;11.574;2024-03-23T13:55:51;3.47;;;3.05;;
27428;SDS011;14881;48.092;11.574;2024-03-23T13:58:19;5.63;;;2.95;;
27428;SDS011;14881;48.092;11.574;2024-03-23T14:00:45;5.95;;;2.90;;
27428;SDS011;14881;48.092;11.574;2024-03-23T14:03:13;8.82;;;3.55;;
27428;SDS011;14881;48.092;11.574;2024-03-23T14:05:40;5.97;;;3.55;;
27428;SDS011;14881;48.092;11.574;2024-03-23T14:08:07;5.88;;;3.25;;
27428;SDS011;14881;48.092;11.574;2024-03-23T14:10:34;6.63;;;4.60;;
27428;SDS011;14881;48.092;11.574;2024-03-23T14:13:01;8.23;;;4.40;;
27428;SDS011;14881;48.092;11.574;2024-03-23T14:15:29;6.72;;;4.28;;
27428;SDS011;14881;48.092;11.574;2024-03-23T14:17:56;9.55;;;5.15;;
27428;SDS011;14881;48.092;11.574;2024-03-23T14:20:23;9.02;;;4.82;;
27428;SDS011;14881;48.092;11.574;2024-03-23T14:22:50;14.13;;;6.00;;
27428;SDS011;14881;48.092;11.574;2024-03-23T14:25:17;12.52;;;5.70;;
27428;SDS011;14881;48.092;11.574;2024-03-23T14:27:44;9.77;;;6.25;;
27428;SDS011;14881;48.092;11.574;2024-03-23T14:30:11;10.70;;;6.00;;
27428;SDS011;14881;48.092;11.574;2024-03-23T14:32:40;17.15;;;6.47;;
27428;SDS011;14881;48.092;11.574;2024-03-23T14:35:06;9.10;;;6.00;;
27428;SDS011;14881;48.092;11.574;2024-03-23T14:37:36;8.85;;;5.70;;
27428;SDS011;14881;48.092;11.574;2024-03-23T14:40:02;9.32;;;6.60;;
27428;SDS011;14881;48.092;11.574;2024-03-23T14:42:29;15.02;;;5.90;;
27428;SDS011;14881;48.092;11.574;2024-03-23T14:44:56;10.82;;;6.20;;
27428;SDS011;14881;48.092;11.574;2024-03-23T14:47:23;13.40;;;6.75;;
27428;SDS011;14881;48.092;11.574;2024-03-23T14:49:50;13.13;;;5.93;;
27428;SDS011;14881;48.092;11.574;2024-03-23T14:52:17;11.70;;;5.88;;
27428;SDS011;14881;48.092;11.574;2024-03-23T14:54:44;9.48;;;4.63;;
27428;SDS011;14881;48.092;11.574;2024-03-23T14:57:11;11.93;;;4.93;;
27428;SDS011;14881;48.092;11.574;2024-03-23T14:59:37;9.05;;;4.63;;
27428;SDS011;14881;48.092;11.574;2024-03-23T15:02:05;7.13;;;3.85;;
27428;SDS011;14881;48.092;11.574;2024-03-23T15:04:32;8.40;;;4.32;;
27428;SDS011;14881;48.092;11.574;2024-03-23T15:07:00;10.38;;;4.35;;
27428;SDS011;14881;48.092;11.574;2024-03-23T15:09:26;12.15;;;4.75;;
27428;SDS011;14881;48.092;11.574;2024-03-23T15:11:53;13.07;;;4.80;;
27428;SDS011;14881;48.092;11.574;2024-03-23T15:14:20;11.55;;;4.82;;
27428;SDS011;14881;48.092;11.574;2024-03-23T15:16:47;8.52;;;4.95;;
27428;SDS011;14881;48.092;11.574;2024-03-23T15:19:14;10.45;;;5.70;;
27428;SDS011;14881;48.092;11.574;2024-03-23T15:21:42;7.25;;;4.78;;
27428;SDS011;14881;48.092;11.574;2024-03-23T15:24:09;11.27;;;5.28;;
27428;SDS011;14881;48.092;11.574;2024-03-23T15:26:37;10.50;;;5.63;;
27428;SDS011;14881;48.092;11.574;2024-03-23T15:29:03;7.90;;;5.25;;